Terminal Aerodrome Forecast
Issued by NWS Wilmington, NC

Current Version | Previous Version | Graphics & Text | Print | Product List | Glossary Off
Versions: 1 2 3 4 5 6 7 8 9 10 11 12 13 14 15 16 17 18

936
FTUS42 KILM 220538
TAFLBT
TAF
KLBT 220538Z 2206/2306 00000KT P6SM SCT250
     FM220900 00000KT 4SM BR SCT002
      TEMPO 2209/2212 3/4SM BR BKN002
     FM221400 00000KT P6SM SCT090
     FM222000 21006KT P6SM BKN035
     FM222300 20007KT P6SM SCT250=

USA.gov is the U.S. government's official web portal to all federal, state and local government web resources and services.